Time;durP1;ratioP1;P1;durP2;ratioP2;P2;SDS_P1;SDS_P2;PMS_P1;PMS_P2;Temp;Humidity;BMP_temperature;BMP_pressure;BME280_temperature;BME280_humidity;BME280_pressure;Samples;Min_cycle;Max_cycle;Signal;HPM_P1;HPM_P2
2021/09/07 00:00:51;;;;;;;2.85;1.32;;;;;;;9.96;100.00;101396.97;1815429;78;22445;-64
2021/09/07 00:03:17;;;;;;;4.67;1.72;;;;;;;10.00;100.00;101398.80;1807499;78;21152;-64
2021/09/07 00:05:46;;;;;;;3.15;1.50;;;;;;;10.07;100.00;101398.98;1816339;78;21115;-65
2021/09/07 00:08:13;;;;;;;3.08;1.67;;;;;;;10.10;100.00;101396.89;1817857;78;21042;-65
2021/09/07 00:10:40;;;;;;;3.95;1.40;;;;;;;10.14;100.00;101401.32;1817851;78;21145;-65
2021/09/07 00:13:08;;;;;;;3.30;1.72;;;;;;;10.18;100.00;101406.55;1818594;78;20967;-65
2021/09/07 00:15:36;;;;;;;2.95;1.40;;;;;;;10.22;100.00;101405.28;1818062;78;20987;-65
2021/09/07 00:18:05;;;;;;;2.80;1.25;;;;;;;10.24;100.00;101409.87;1804430;78;21556;-64
2021/09/07 00:20:34;;;;;;;2.60;1.20;;;;;;;10.15;100.00;101409.45;1810498;78;20951;-65
2021/09/07 00:23:00;;;;;;;4.55;1.47;;;;;;;10.14;100.00;101415.65;1804737;78;21277;-64
2021/09/07 00:25:27;;;;;;;3.87;1.60;;;;;;;10.13;100.00;101416.14;1814794;78;20983;-65
2021/09/07 00:27:54;;;;;;;3.45;1.80;;;;;;;10.11;100.00;101418.06;1761226;81;21134;-65
2021/09/07 00:30:21;;;;;;;3.80;1.70;;;;;;;10.16;100.00;101416.33;1817929;78;21011;-63
2021/09/07 00:32:48;;;;;;;2.85;1.47;;;;;;;10.15;100.00;101415.52;1816843;78;20998;-65
2021/09/07 00:35:16;;;;;;;3.35;1.50;;;;;;;10.15;100.00;101419.42;1797474;78;22519;-64
2021/09/07 00:37:43;;;;;;;4.78;1.57;;;;;;;10.12;100.00;101423.63;1808902;78;21625;-64
2021/09/07 00:40:10;;;;;;;3.58;1.60;;;;;;;10.06;100.00;101423.41;1806840;78;21011;-65
2021/09/07 00:42:38;;;;;;;3.10;1.47;;;;;;;10.05;100.00;101429.59;1818879;78;21543;-63
2021/09/07 00:45:10;;;;;;;3.12;1.42;;;;;;;10.04;100.00;101429.23;1816196;78;21027;-65
2021/09/07 00:47:37;;;;;;;5.28;1.30;;;;;;;10.04;100.00;101426.63;1813442;78;21113;-65
2021/09/07 00:50:06;;;;;;;2.42;1.40;;;;;;;9.95;100.00;101434.39;1796244;78;21571;-65
2021/09/07 00:52:34;;;;;;;3.40;1.67;;;;;;;9.89;100.00;101432.40;1796222;78;21060;-62
2021/09/07 00:55:01;;;;;;;2.50;1.40;;;;;;;9.84;100.00;101435.91;1811633;78;21071;-65
2021/09/07 00:57:28;;;;;;;3.83;1.40;;;;;;;9.75;100.00;101443.33;1795853;78;20857;-65
2021/09/07 00:59:55;;;;;;;3.98;1.70;;;;;;;9.82;100.00;101440.47;1818875;78;22394;-64
2021/09/07 01:02:23;;;;;;;4.92;1.50;;;;;;;9.85;100.00;101444.54;1816675;78;20974;-63
2021/09/07 01:04:50;;;;;;;2.70;1.20;;;;;;;9.89;100.00;101444.61;1811601;78;20963;-64
2021/09/07 01:07:20;;;;;;;2.95;1.30;;;;;;;9.92;100.00;101443.80;1815145;78;21452;-62
2021/09/07 01:09:49;;;;;;;2.30;1.10;;;;;;;9.95;100.00;101444.80;1815760;78;20958;-64
2021/09/07 01:12:18;;;;;;;4.20;1.52;;;;;;;10.03;100.00;101445.36;1816406;78;21236;-64
2021/09/07 01:14:47;;;;;;;3.25;1.35;;;;;;;10.04;100.00;101448.31;1811705;78;20990;-64
2021/09/07 01:17:18;;;;;;;4.22;1.52;;;;;;;10.07;100.00;101443.27;1815770;78;21019;-65
2021/09/07 01:19:47;;;;;;;3.05;1.30;;;;;;;10.15;100.00;101448.09;1805809;78;21072;-65
2021/09/07 01:22:18;;;;;;;4.40;1.60;;;;;;;10.16;100.00;101453.63;1800566;78;20995;-64
2021/09/07 01:24:45;;;;;;;4.03;1.50;;;;;;;10.16;100.00;101455.41;1814904;78;21139;-64
2021/09/07 01:27:11;;;;;;;2.67;1.35;;;;;;;10.08;100.00;101448.84;1816396;78;21031;-64
2021/09/07 01:29:41;;;;;;;2.65;1.35;;;;;;;10.05;100.00;101460.37;1817071;78;21582;-64
2021/09/07 01:32:10;;;;;;;4.97;1.37;;;;;;;10.07;100.00;101461.51;1817647;78;21117;-62
2021/09/07 01:34:38;;;;;;;5.20;1.50;;;;;;;10.08;100.00;101462.68;1805674;78;20888;-64
2021/09/07 01:37:07;;;;;;;4.25;1.60;;;;;;;10.07;100.00;101461.02;1815930;78;21525;-62
2021/09/07 01:39:36;;;;;;;3.77;1.25;;;;;;;10.10;100.00;101467.23;1800060;78;20959;-63
2021/09/07 01:42:04;;;;;;;3.40;1.40;;;;;;;10.22;100.00;101466.03;1805690;78;20976;-62
2021/09/07 01:44:32;;;;;;;3.50;1.45;;;;;;;10.24;100.00;101465.89;1816033;78;21056;-64
2021/09/07 01:47:00;;;;;;;3.85;1.82;;;;;;;10.21;100.00;101470.91;1806799;78;21060;-64
2021/09/07 01:49:26;;;;;;;2.95;1.50;;;;;;;10.23;100.00;101478.59;1813912;78;21379;-64
2021/09/07 01:51:53;;;;;;;4.47;1.25;;;;;;;10.20;100.00;101478.89;1817225;78;21125;-64
2021/09/07 01:54:21;;;;;;;2.85;1.47;;;;;;;10.22;100.00;101476.45;1802476;78;20923;-63
2021/09/07 01:56:49;;;;;;;3.72;1.85;;;;;;;10.26;100.00;101473.09;1805927;78;21525;-63
2021/09/07 01:59:17;;;;;;;3.50;1.12;;;;;;;10.25;100.00;101475.38;1810957;78;20939;-62
2021/09/07 02:01:44;;;;;;;5.40;1.42;;;;;;;10.21;100.00;101476.12;1805899;78;21173;-63
2021/09/07 02:04:12;;;;;;;3.62;1.40;;;;;;;10.26;100.00;101479.61;1810881;78;20971;-64
2021/09/07 02:06:39;;;;;;;2.70;1.30;;;;;;;10.27;100.00;101473.94;1815128;78;21049;-64
2021/09/07 02:09:07;;;;;;;3.62;1.70;;;;;;;10.27;100.00;101479.16;1810168;78;20955;-65
2021/09/07 02:11:36;;;;;;;4.15;2.33;;;;;;;10.22;100.00;101471.73;1810231;78;21401;-65
2021/09/07 02:14:03;;;;;;;4.47;1.70;;;;;;;10.08;100.00;101474.89;1815079;78;22567;-64
2021/09/07 02:16:31;;;;;;;2.87;1.30;;;;;;;10.01;100.00;101474.66;1815120;78;21458;-64
2021/09/07 02:19:01;;;;;;;2.65;1.20;;;;;;;9.86;100.00;101470.94;1790197;79;21509;-63
2021/09/07 02:21:28;;;;;;;2.70;1.27;;;;;;;9.73;100.00;101476.49;1792777;79;20999;-63
2021/09/07 02:23:57;;;;;;;2.92;1.37;;;;;;;9.75;100.00;101477.18;1786528;79;21051;-63
2021/09/07 02:26:25;;;;;;;3.42;1.32;;;;;;;9.67;100.00;101479.22;1793134;78;21238;-64
2021/09/07 02:28:53;;;;;;;4.37;1.52;;;;;;;9.50;100.00;101475.60;1810056;77;21078;-64
2021/09/07 02:31:21;;;;;;;2.17;1.02;;;;;;;9.45;100.00;101484.83;1815715;78;20983;-64
2021/09/07 02:33:50;;;;;;;2.47;1.22;;;;;;;9.41;100.00;101488.20;1806763;78;20999;-62
2021/09/07 02:36:21;;;;;;;2.47;1.17;;;;;;;9.47;100.00;101484.19;1810609;78;21004;-65
2021/09/07 02:38:49;;;;;;;5.83;1.62;;;;;;;9.41;100.00;101492.59;1808078;77;21193;-65
2021/09/07 02:41:16;;;;;;;4.72;1.55;;;;;;;9.33;100.00;101492.50;1816902;78;20954;-64
2021/09/07 02:43:44;;;;;;;5.12;1.20;;;;;;;9.28;100.00;101496.84;1809446;78;20874;-62
2021/09/07 02:46:12;;;;;;;2.72;1.20;;;;;;;9.28;100.00;101498.14;1810786;78;21065;-65
2021/09/07 02:48:39;;;;;;;3.85;1.37;;;;;;;9.25;100.00;101499.72;1808735;78;21110;-65
2021/09/07 02:51:07;;;;;;;5.25;2.75;;;;;;;9.27;100.00;101506.89;1805317;78;21306;-65
2021/09/07 02:53:34;;;;;;;2.15;0.95;;;;;;;9.24;100.00;101508.02;1800831;77;20981;-63
2021/09/07 02:56:00;;;;;;;3.45;1.20;;;;;;;9.29;100.00;101504.98;1804133;78;21027;-65
2021/09/07 02:58:27;;;;;;;2.60;1.45;;;;;;;9.27;100.00;101506.89;1810990;78;22330;-65
2021/09/07 03:00:56;;;;;;;5.50;1.75;;;;;;;9.20;100.00;101511.02;1753479;80;21014;-67
2021/09/07 03:03:22;;;;;;;4.50;1.82;;;;;;;9.10;100.00;101517.58;1768863;80;21144;-66
2021/09/07 03:05:50;;;;;;;4.53;1.50;;;;;;;9.03;100.00;101515.69;1772842;79;21023;-64
2021/09/07 03:08:18;;;;;;;4.55;1.50;;;;;;;9.01;100.00;101516.62;1790469;79;21564;-65
2021/09/07 03:10:45;;;;;;;4.45;1.52;;;;;;;8.98;100.00;101523.44;1786802;79;21539;-65
2021/09/07 03:13:14;;;;;;;3.85;1.85;;;;;;;8.94;100.00;101524.69;1775191;79;21752;-64
2021/09/07 03:15:42;;;;;;;4.15;1.82;;;;;;;8.92;100.00;101525.29;1777776;80;21147;-62
2021/09/07 03:18:10;;;;;;;4.17;1.50;;;;;;;8.93;100.00;101533.91;1784283;79;21001;-67
2021/09/07 03:20:38;;;;;;;3.80;2.08;;;;;;;8.94;100.00;101535.53;1786729;79;21484;-67
2021/09/07 03:23:05;;;;;;;3.90;2.05;;;;;;;9.17;100.00;101538.65;1776530;79;21002;-67
2021/09/07 03:25:32;;;;;;;4.22;2.15;;;;;;;9.23;100.00;101542.78;1769972;79;21034;-68
2021/09/07 03:27:59;;;;;;;3.87;1.77;;;;;;;9.36;100.00;101543.78;1774973;79;21103;-66
2021/09/07 03:30:28;;;;;;;4.40;2.35;;;;;;;9.30;100.00;101544.82;1774473;79;22354;-67
2021/09/07 03:32:56;;;;;;;5.05;2.55;;;;;;;9.26;100.00;101541.69;1785992;79;20958;-68
2021/09/07 03:35:23;;;;;;;4.78;1.50;;;;;;;9.24;100.00;101544.89;1786358;79;20911;-64
2021/09/07 03:37:50;;;;;;;4.30;2.02;;;;;;;9.18;100.00;101551.50;1785956;79;20958;-66
2021/09/07 03:40:17;;;;;;;5.83;2.58;;;;;;;9.29;100.00;101557.02;1785303;79;21130;-66
2021/09/07 03:42:44;;;;;;;8.98;2.60;;;;;;;9.32;100.00;101558.03;1774690;79;21049;-64
2021/09/07 03:45:14;;;;;;;6.97;3.00;;;;;;;9.47;100.00;101551.40;1786268;79;21473;-64
2021/09/07 03:47:43;;;;;;;4.40;3.15;;;;;;;10.02;100.00;101551.02;1774853;79;20989;-65
2021/09/07 03:50:11;;;;;;;6.00;3.10;;;;;;;11.02;100.00;101555.11;1784872;79;20975;-66
2021/09/07 03:52:39;;;;;;;5.20;2.47;;;;;;;12.09;100.00;101546.75;1786082;79;21200;-65
2021/09/07 03:55:09;;;;;;;8.00;3.77;;;;;;;12.88;100.00;101550.02;1785192;79;21087;-64
2021/09/07 03:57:37;;;;;;;6.57;3.30;;;;;;;13.00;100.00;101559.64;1785581;79;21163;-66
2021/09/07 04:00:06;;;;;;;8.40;3.77;;;;;;;12.79;100.00;101558.03;1775161;79;21180;-64
2021/09/07 04:02:35;;;;;;;7.92;2.83;;;;;;;12.49;100.00;101558.20;1761219;79;21282;-65
2021/09/07 04:05:03;;;;;;;4.97;2.20;;;;;;;13.43;100.00;101560.69;1757345;80;21167;-64
2021/09/07 04:07:31;;;;;;;5.10;2.00;;;;;;;13.43;100.00;101560.69;1733009;81;22010;-64
2021/09/07 04:09:58;;;;;;;8.17;2.10;;;;;;;14.73;100.00;101551.98;1730962;81;21727;-65
2021/09/07 04:12:25;;;;;;;6.20;1.87;;;;;;;16.13;100.00;101551.13;1755937;80;21658;-65
2021/09/07 04:14:52;;;;;;;7.27;2.33;;;;;;;17.53;79.46;101555.55;1708686;82;21089;-65
2021/09/07 04:17:18;;;;;;;5.20;2.57;;;;;;;18.73;63.78;101548.16;1756816;80;21137;-66
2021/09/07 04:19:46;;;;;;;6.87;3.33;;;;;;;19.77;55.32;101541.11;1745174;80;21045;-73
2021/09/07 04:22:13;;;;;;;8.43;2.57;;;;;;;20.64;49.98;101540.27;1762657;79;21065;-67
2021/09/07 04:24:40;;;;;;;2.73;1.50;;;;;;;21.28;46.60;101542.66;1729969;80;21835;-68
2021/09/07 04:27:06;;;;;;;3.73;1.20;;;;;;;21.81;42.99;101538.02;1763713;79;21078;-67
2021/09/07 04:29:34;;;;;;;5.33;2.17;;;;;;;22.04;41.30;101539.39;1755232;80;21123;-67
2021/09/07 04:32:01;;;;;;;4.57;2.10;;;;;;;22.35;39.56;101540.19;1756860;79;20982;-67
2021/09/07 04:34:27;;;;;;;8.77;2.53;;;;;;;22.55;38.80;101536.66;1766994;79;21477;-68
2021/09/07 04:36:54;;;;;;;5.47;2.47;;;;;;;22.82;38.47;101540.17;1758189;79;20931;-69
2021/09/07 04:39:21;;;;;;;7.47;2.40;;;;;;;23.31;37.33;101541.48;1764848;79;20994;-69
2021/09/07 04:41:47;;;;;;;4.83;2.07;;;;;;;23.61;36.30;101546.30;1757625;79;21088;-69
2021/09/07 04:44:14;;;;;;;4.40;1.77;;;;;;;23.92;36.02;101549.00;1759024;79;20991;-68
2021/09/07 04:46:42;;;;;;;4.40;2.00;;;;;;;24.46;35.20;101540.83;1729588;80;21625;-67
2021/09/07 04:49:09;;;;;;;5.75;2.72;;;;;;;24.94;34.14;101540.69;1759218;79;20962;-68
2021/09/07 04:51:36;;;;;;;3.60;2.30;;;;;;;25.44;32.51;101543.70;1762025;79;21128;-68
2021/09/07 04:54:03;;;;;;;4.03;2.50;;;;;;;25.46;31.94;101552.27;1773843;79;21170;-67
2021/09/07 04:56:29;;;;;;;3.90;2.02;;;;;;;25.68;31.23;101550.90;1770305;79;21157;-69
2021/09/07 04:58:58;;;;;;;3.37;2.00;;;;;;;26.04;31.03;101551.77;1770022;79;20939;-67
2021/09/07 05:01:24;;;;;;;9.45;3.10;;;;;;;26.19;29.43;101547.34;1784902;79;20955;-66
2021/09/07 05:03:51;;;;;;;4.28;2.67;;;;;;;25.97;30.06;101549.30;1781540;79;21038;-66
2021/09/07 05:06:18;;;;;;;4.58;2.67;;;;;;;26.19;30.03;101547.34;1782178;79;22334;-67
2021/09/07 05:08:44;;;;;;;4.08;2.75;;;;;;;26.43;29.50;101547.77;1771616;79;22469;-67
2021/09/07 05:11:12;;;;;;;4.70;3.22;;;;;;;26.60;28.78;101545.52;1780676;79;21002;-66
2021/09/07 05:13:41;;;;;;;4.12;3.10;;;;;;;26.58;28.20;101552.44;1769153;79;21002;-66
2021/09/07 05:16:07;;;;;;;5.12;2.87;;;;;;;26.42;28.47;101554.73;1780206;79;21568;-67
2021/09/07 05:18:34;;;;;;;4.17;2.67;;;;;;;26.26;28.61;101549.00;1779548;79;21082;-67
2021/09/07 05:21:00;;;;;;;5.33;2.72;;;;;;;26.17;28.77;101555.34;1780693;79;20978;-67
2021/09/07 05:23:27;;;;;;;4.75;2.27;;;;;;;26.11;29.01;101557.17;1780789;79;21003;-66
2021/09/07 05:25:53;;;;;;;3.95;2.22;;;;;;;26.09;28.61;101559.81;1769339;79;21045;-66
2021/09/07 05:28:20;;;;;;;4.95;2.10;;;;;;;25.37;28.90;101563.63;1752008;80;21030;-66
2021/09/07 05:30:47;;;;;;;4.55;2.00;;;;;;;24.51;29.52;101568.91;1768613;79;22423;-67
2021/09/07 05:33:13;;;;;;;4.83;2.20;;;;;;;23.30;30.84;101568.33;1780715;79;21070;-66
2021/09/07 05:35:40;;;;;;;2.93;1.67;;;;;;;22.55;32.63;101572.53;1780367;79;20978;-65
2021/09/07 05:38:06;;;;;;;3.23;1.67;;;;;;;22.03;33.23;101582.12;1780049;79;21055;-64
2021/09/07 05:40:33;;;;;;;4.67;1.93;;;;;;;21.47;33.96;101584.59;1780846;79;21033;-65
2021/09/07 05:42:59;;;;;;;4.77;1.87;;;;;;;21.02;34.81;101589.64;1775671;79;21128;-66
2021/09/07 05:45:26;;;;;;;3.60;1.70;;;;;;;20.75;35.50;101585.64;1780611;79;20951;-64
2021/09/07 05:47:52;;;;;;;4.17;1.60;;;;;;;20.34;36.26;101591.77;1736410;81;21497;-65
2021/09/07 05:50:19;;;;;;;3.60;1.53;;;;;;;20.10;36.82;101599.95;1779896;79;20979;-64
2021/09/07 05:52:46;;;;;;;4.67;1.60;;;;;;;19.86;37.72;101598.07;1780493;79;21014;-63
2021/09/07 05:55:13;;;;;;;2.70;1.40;;;;;;;19.78;38.07;101602.29;1752116;80;21144;-63
2021/09/07 05:57:39;;;;;;;6.00;1.87;;;;;;;19.71;38.10;101598.34;1779271;79;21049;-63
2021/09/07 06:00:08;;;;;;;3.77;1.67;;;;;;;19.50;38.00;101603.37;1771071;79;21066;-63
2021/09/07 06:02:42;;;;;;;3.90;1.90;;;;;;;19.31;38.32;101605.57;1766867;80;20879;-64
2021/09/07 06:05:10;;;;;;;3.40;1.77;;;;;;;19.04;39.27;101610.91;1775112;80;20962;-65
2021/09/07 06:07:37;;;;;;;3.07;1.27;;;;;;;18.93;40.26;101609.70;1775824;80;21134;-65
2021/09/07 06:10:05;;;;;;;3.97;1.43;;;;;;;19.00;39.77;101612.86;1768138;79;20993;-65
2021/09/07 06:12:31;;;;;;;2.77;1.17;;;;;;;18.93;40.26;101609.70;1771425;80;21102;-65
2021/09/07 06:14:58;;;;;;;4.80;1.60;;;;;;;19.14;40.43;101609.98;1757830;80;21313;-66
2021/09/07 06:17:24;;;;;;;3.10;1.50;;;;;;;19.38;40.43;101619.59;1765804;80;21054;-65
2021/09/07 06:19:52;;;;;;;4.10;1.60;;;;;;;19.47;40.01;101614.36;1773840;80;21023;-65
2021/09/07 06:22:19;;;;;;;4.03;1.40;;;;;;;19.60;39.38;101617.48;1764154;80;20917;-66
2021/09/07 06:24:48;;;;;;;4.80;1.93;;;;;;;19.75;39.36;101621.23;1755572;80;20963;-67
2021/09/07 06:27:15;;;;;;;2.07;1.20;;;;;;;20.04;39.41;101616.70;1763457;80;21183;-67
2021/09/07 06:29:42;;;;;;;5.47;1.60;;;;;;;20.33;39.38;101623.22;1765720;80;21722;-67
2021/09/07 06:32:09;;;;;;;3.40;1.20;;;;;;;21.07;37.79;101622.95;1773198;80;21150;-67
2021/09/07 06:34:36;;;;;;;3.57;1.23;;;;;;;21.83;36.34;101618.24;1767163;80;20906;-67
2021/09/07 06:37:04;;;;;;;2.60;1.30;;;;;;;22.43;33.84;101618.75;1756453;80;20946;-66
2021/09/07 06:39:31;;;;;;;2.33;1.30;;;;;;;23.02;33.36;101620.40;1770488;80;21065;-65
2021/09/07 06:41:57;;;;;;;2.23;1.40;;;;;;;23.69;31.76;101617.81;1764213;80;20947;-65
2021/09/07 06:44:24;;;;;;;2.50;1.23;;;;;;;23.92;31.38;101616.91;1769968;80;22690;-64
2021/09/07 06:46:50;;;;;;;2.83;1.30;;;;;;;24.30;30.78;101616.23;1765141;80;20963;-64
2021/09/07 06:49:18;;;;;;;2.40;1.45;;;;;;;24.55;29.64;101620.37;1713106;81;21483;-64
2021/09/07 06:51:44;;;;;;;3.98;1.80;;;;;;;24.74;30.40;101619.09;1724609;81;20978;-64
2021/09/07 06:54:11;;;;;;;2.33;1.50;;;;;;;25.11;28.76;101618.02;1768907;79;20955;-65
2021/09/07 06:56:39;;;;;;;2.42;1.40;;;;;;;25.05;28.69;101620.86;1772376;80;20864;-65
2021/09/07 06:59:06;;;;;;;5.47;1.77;;;;;;;25.04;29.46;101625.39;1769227;80;20977;-64
2021/09/07 07:01:33;;;;;;;4.25;1.85;;;;;;;25.42;28.02;101627.25;1762895;80;20911;-62
2021/09/07 07:04:00;;;;;;;3.25;1.82;;;;;;;25.70;27.99;101628.08;1765635;80;21038;-67
2021/09/07 07:06:27;;;;;;;3.90;1.45;;;;;;;25.94;28.10;101625.41;1773842;80;21552;-65
2021/09/07 07:08:55;;;;;;;3.02;1.50;;;;;;;26.08;26.27;101626.36;1770010;80;20899;-66
2021/09/07 07:11:23;;;;;;;2.20;1.50;;;;;;;26.00;26.50;101630.83;1774008;80;20946;-66
2021/09/07 07:13:50;;;;;;;4.00;1.40;;;;;;;26.07;26.12;101631.44;1762927;80;20907;-64
2021/09/07 07:16:17;;;;;;;3.37;1.42;;;;;;;26.12;26.58;101627.46;1772896;80;21479;-65
2021/09/07 07:18:44;;;;;;;4.40;1.70;;;;;;;26.16;26.22;101633.37;1769201;80;21583;-65
2021/09/07 07:21:11;;;;;;;3.42;1.50;;;;;;;26.09;26.28;101641.33;1759797;79;22215;-66
2021/09/07 07:23:38;;;;;;;2.72;1.30;;;;;;;25.88;26.12;101632.31;1761656;80;21085;-67
2021/09/07 07:26:18;;;;;;;1.85;1.10;;;;;;;25.80;27.08;101635.41;1651028;84;20951;-65
2021/09/07 07:28:44;;;;;;;2.67;1.55;;;;;;;26.04;26.69;101636.74;1691165;82;21491;-67
2021/09/07 07:31:11;;;;;;;3.15;1.65;;;;;;;26.08;26.79;101637.05;1687560;83;21017;-68
2021/09/07 07:33:38;;;;;;;4.05;1.42;;;;;;;26.24;26.63;101638.78;1709769;82;21130;-66
2021/09/07 07:36:06;;;;;;;3.15;1.25;;;;;;;26.21;26.75;101637.95;1714690;82;21615;-67
2021/09/07 07:38:33;;;;;;;2.22;1.27;;;;;;;26.33;25.01;101637.78;1710095;81;21487;-65
2021/09/07 07:41:01;;;;;;;2.08;1.30;;;;;;;25.88;25.61;101643.80;1712149;81;20908;-66
2021/09/07 07:43:30;;;;;;;3.37;1.70;;;;;;;25.74;26.00;101639.87;1714183;81;21536;-67
2021/09/07 07:45:56;;;;;;;2.60;1.40;;;;;;;25.73;27.15;101640.95;1714974;81;22781;-67
2021/09/07 07:48:24;;;;;;;2.35;1.47;;;;;;;25.84;26.82;101642.70;1708186;82;22478;-66
2021/09/07 07:50:50;;;;;;;3.50;1.50;;;;;;;25.90;26.85;101646.21;1721814;81;20963;-67
2021/09/07 07:53:17;;;;;;;1.95;1.27;;;;;;;25.89;26.79;101637.39;1719414;82;21050;-67
2021/09/07 07:55:44;;;;;;;3.85;1.50;;;;;;;25.86;27.38;101633.89;1723252;81;21473;-67
2021/09/07 07:58:10;;;;;;;3.12;1.27;;;;;;;26.07;27.06;101630.09;1714848;81;21134;-67
2021/09/07 08:00:36;;;;;;;2.25;1.10;;;;;;;26.51;27.34;101636.63;1719694;81;20955;-66
2021/09/07 08:03:03;;;;;;;3.25;1.52;;;;;;;26.97;25.06;101635.59;1716320;81;21026;-67
2021/09/07 08:05:29;;;;;;;3.08;1.85;;;;;;;26.93;25.12;101631.28;1717112;81;21117;-67
2021/09/07 08:07:57;;;;;;;3.22;1.10;;;;;;;26.71;25.33;101642.65;1710922;81;21037;-67
2021/09/07 08:10:24;;;;;;;3.83;1.35;;;;;;;26.62;25.18;101649.02;1713562;81;21169;-68
2021/09/07 08:12:50;;;;;;;2.05;1.40;;;;;;;26.65;24.95;101647.17;1711376;81;22392;-68
2021/09/07 08:15:18;;;;;;;4.45;2.12;;;;;;;26.45;24.05;101637.11;1705160;81;21130;-68
2021/09/07 08:17:46;;;;;;;5.33;3.22;;;;;;;25.88;25.62;101638.47;1704884;81;21176;-64
2021/09/07 08:20:13;;;;;;;4.17;1.60;;;;;;;25.74;25.54;101639.87;1710385;81;20967;-66
2021/09/07 08:22:39;;;;;;;3.42;1.30;;;;;;;25.97;24.96;101630.80;1712227;81;21125;-67
2021/09/07 08:25:07;;;;;;;2.40;1.40;;;;;;;26.01;24.25;101639.11;1721578;81;20899;-67
2021/09/07 08:27:33;;;;;;;2.05;1.37;;;;;;;25.63;24.08;101636.81;1725398;82;21504;-68
2021/09/07 08:30:00;;;;;;;2.27;1.40;;;;;;;24.96;24.83;101637.30;1723449;81;21057;-67
2021/09/07 08:32:27;;;;;;;4.60;1.60;;;;;;;24.73;25.28;101639.59;1720572;82;21002;-67
2021/09/07 08:34:54;;;;;;;3.93;1.30;;;;;;;24.49;25.97;101646.97;1726482;81;21120;-69
2021/09/07 08:37:20;;;;;;;3.23;1.53;;;;;;;24.57;26.86;101649.75;1726524;81;20962;-70
2021/09/07 08:39:47;;;;;;;5.83;4.03;;;;;;;25.07;26.29;101634.75;1720990;82;21638;-69
2021/09/07 08:42:13;;;;;;;3.20;1.90;;;;;;;25.84;25.69;101636.02;1719429;81;20990;-68
2021/09/07 08:44:47;;;;;;;2.53;1.30;;;;;;;26.37;24.97;101625.02;1724010;82;20916;-68
2021/09/07 08:47:17;;;;;;;2.70;1.07;;;;;;;26.81;24.30;101626.14;1713528;81;21155;-68
2021/09/07 08:49:46;;;;;;;3.13;1.53;;;;;;;26.84;23.87;101625.63;1723749;82;21478;-67
2021/09/07 08:52:14;;;;;;;2.40;1.10;;;;;;;26.46;24.61;101631.25;1714026;81;21022;-68
2021/09/07 08:54:41;;;;;;;2.10;1.20;;;;;;;26.38;23.56;101629.29;1725574;82;20903;-66
2021/09/07 08:57:08;;;;;;;3.13;1.43;;;;;;;26.46;23.75;101623.23;1719139;82;20990;-66
2021/09/07 08:59:35;;;;;;;1.87;1.20;;;;;;;26.83;22.23;101620.55;1723838;81;21083;-67
2021/09/07 09:02:15;;;;;;;1.77;1.03;;;;;;;27.08;22.46;101619.86;1725343;81;20974;-67
2021/09/07 09:04:49;;;;;;;1.87;1.10;;;;;;;27.17;22.03;101617.01;1717895;82;21057;-65
2021/09/07 09:07:25;;;;;;;1.73;1.10;;;;;;;27.06;20.55;101616.66;1721783;82;20947;-65
2021/09/07 09:09:52;;;;;;;1.83;0.90;;;;;;;26.76;21.44;101611.41;1721503;81;21042;-66
2021/09/07 09:12:34;;;;;;;3.23;1.90;;;;;;;26.49;21.68;101610.16;1716983;81;21170;-67
2021/09/07 09:15:16;;;;;;;23.50;21.27;;;;;;;26.59;22.05;101603.52;1719497;81;21003;-67
2021/09/07 09:17:45;;;;;;;3.33;1.63;;;;;;;27.12;21.86;101599.06;1726015;82;20971;-68
2021/09/07 09:20:22;;;;;;;3.80;1.60;;;;;;;27.23;21.41;101589.71;1713265;81;21148;-65
2021/09/07 09:22:53;;;;;;;2.50;1.20;;;;;;;26.96;21.56;101593.31;1717955;82;20995;-68
2021/09/07 09:25:26;;;;;;;3.10;2.00;;;;;;;26.41;22.20;101598.58;1716408;81;21151;-66
2021/09/07 09:28:15;;;;;;;1.90;0.90;;;;;;;26.17;23.13;101596.23;1725716;82;20978;-66
2021/09/07 09:30:50;;;;;;;3.03;1.97;;;;;;;26.26;22.48;101601.93;1716342;81;21745;-65
2021/09/07 09:33:24;;;;;;;2.33;1.20;;;;;;;25.97;22.40;101594.72;1694275;82;20989;-66
2021/09/07 09:35:56;;;;;;;1.97;1.10;;;;;;;26.07;21.94;101592.69;1687465;82;20958;-65
2021/09/07 09:38:29;;;;;;;1.47;0.95;;;;;;;25.90;21.92;101593.59;1694648;83;21156;-66
2021/09/07 09:41:00;;;;;;;6.33;5.20;;;;;;;25.58;21.47;101595.38;1720122;82;21028;-67
2021/09/07 09:43:37;;;;;;;1.92;1.30;;;;;;;25.45;22.65;101602.70;1718138;82;21504;-67
2021/09/07 09:46:21;;;;;;;2.27;1.23;;;;;;;25.68;21.27;101598.97;1711319;81;21003;-65
2021/09/07 09:48:50;;;;;;;1.77;1.10;;;;;;;25.47;21.34;101606.47;1692857;82;21003;-67
2021/09/07 09:51:19;;;;;;;4.53;1.00;;;;;;;25.08;21.82;101607.00;1686946;82;21169;-66
2021/09/07 09:53:49;;;;;;;4.65;1.37;;;;;;;24.99;22.63;101609.30;1700929;81;21054;-64
2021/09/07 09:56:18;;;;;;;2.17;0.90;;;;;;;24.91;23.01;101610.53;1713634;81;20995;-64
2021/09/07 09:58:46;;;;;;;2.37;1.17;;;;;;;25.25;22.94;101617.14;1716238;81;20968;-67
2021/09/07 10:01:15;;;;;;;1.10;0.70;;;;;;;25.33;21.93;101612.70;1726884;81;21172;-65
2021/09/07 10:03:41;;;;;;;3.13;1.00;;;;;;;25.21;21.32;101607.48;1663479;82;21160;-67
2021/09/07 10:06:10;;;;;;;3.23;1.30;;;;;;;24.88;22.12;101605.68;1700929;81;21017;-65
2021/09/07 10:08:41;;;;;;;3.27;1.90;;;;;;;24.57;22.60;101612.96;1699558;81;21015;-65
2021/09/07 10:11:13;;;;;;;13.00;9.23;;;;;;;24.53;23.28;101611.83;1706285;81;21447;-67
2021/09/07 10:13:43;;;;;;;3.87;1.75;;;;;;;24.81;23.25;101613.05;1718368;81;25890;-66
2021/09/07 10:16:16;;;;;;;4.90;1.10;;;;;;;25.31;22.00;101605.48;1719108;81;21169;-66
2021/09/07 10:18:49;;;;;;;1.53;0.87;;;;;;;25.23;21.48;101606.73;1716761;81;21528;-67
2021/09/07 10:24:02;;;;;;;4.60;1.27;;;;;;;24.32;22.38;101611.48;1656212;81;21093;-67
2021/09/07 10:26:43;;;;;;;2.77;1.03;;;;;;;24.41;22.90;101598.59;1718591;82;21557;-67
2021/09/07 10:29:12;;;;;;;2.83;1.13;;;;;;;24.79;22.62;101597.83;1724703;81;22209;-67
2021/09/07 10:31:48;;;;;;;1.60;0.83;;;;;;;24.99;22.20;101590.09;1717504;82;21065;-68
2021/09/07 10:34:16;;;;;;;2.37;1.37;;;;;;;24.94;22.54;101600.70;1714275;81;21252;-68
2021/09/07 10:36:59;;;;;;;1.70;0.90;;;;;;;24.73;22.53;101602.80;1731983;81;21532;-67
2021/09/07 10:39:33;;;;;;;3.63;1.00;;;;;;;24.37;22.64;101608.90;1718822;81;20974;-68
2021/09/07 10:42:02;;;;;;;1.93;0.80;;;;;;;23.99;23.29;101609.05;1679945;83;21146;-68
2021/09/07 10:44:33;;;;;;;2.20;0.80;;;;;;;24.00;23.87;101605.34;1716362;81;21532;-68
2021/09/07 10:47:14;;;;;;;1.57;0.70;;;;;;;24.13;23.70;101609.58;1710142;81;21145;-69
2021/09/07 10:49:55;;;;;;;1.30;0.70;;;;;;;24.06;23.34;101612.91;1712679;81;21564;-68
2021/09/07 10:52:34;;;;;;;2.12;0.85;;;;;;;24.10;24.29;101614.58;1724425;82;21141;-67
2021/09/07 10:55:09;;;;;;;3.17;1.10;;;;;;;24.60;23.46;101609.81;1717901;83;21190;-67
2021/09/07 10:57:43;;;;;;;2.47;0.97;;;;;;;25.01;23.32;101613.88;1724406;82;20963;-69
2021/09/07 11:00:29;;;;;;;2.50;0.80;;;;;;;24.86;23.50;101611.80;1718888;81;20966;-69
2021/09/07 11:03:04;;;;;;;1.93;0.83;;;;;;;24.74;22.85;101607.91;1721249;82;21508;-68
2021/09/07 11:05:37;;;;;;;1.87;0.90;;;;;;;24.43;23.16;101610.61;1724442;81;21017;-69
2021/09/07 11:08:10;;;;;;;2.47;0.90;;;;;;;24.13;23.24;101609.58;1714571;81;21390;-68
2021/09/07 11:10:51;;;;;;;2.13;0.70;;;;;;;23.94;24.00;101603.65;1724304;82;21441;-67
2021/09/07 11:13:22;;;;;;;2.23;0.70;;;;;;;23.84;24.05;101599.98;1716010;82;21093;-67
2021/09/07 11:15:49;;;;;;;1.80;0.80;;;;;;;24.16;24.23;101600.27;1727224;82;20971;-66
2021/09/07 11:18:30;;;;;;;3.63;1.97;;;;;;;24.41;23.92;101597.26;1711216;82;20974;-68
2021/09/07 11:20:59;;;;;;;1.77;0.90;;;;;;;24.36;23.21;101598.46;1720328;82;21209;-65
2021/09/07 11:23:29;;;;;;;1.77;0.80;;;;;;;23.99;23.40;101590.41;1720052;81;21679;-65
2021/09/07 11:26:04;;;;;;;1.87;0.83;;;;;;;23.75;23.96;101588.39;1717144;82;21015;-67
2021/09/07 11:28:34;;;;;;;2.73;1.00;;;;;;;23.57;24.05;101594.40;1718760;81;21045;-67
2021/09/07 11:31:02;;;;;;;1.90;1.10;;;;;;;23.27;24.74;101592.73;1705325;81;21113;-68
2021/09/07 11:33:33;;;;;;;2.03;1.00;;;;;;;23.12;25.08;101595.09;1719187;81;21144;-68